Time;durP1;ratioP1;P1;durP2;ratioP2;P2;SDS_P1;SDS_P2;PMS_P1;PMS_P2;Temp;Humidity;BMP_temperature;BMP_pressure;BME280_temperature;BME280_humidity;BME280_pressure;Samples;Min_cycle;Max_cycle;Signal;HPM_P1;HPM_P2
2021/06/21 00:00:12;;;;;;;5.53;0.98;;;17.60;99.90;;;;;;1983458;72;21136;-70
2021/06/21 00:02:38;;;;;;;5.72;0.72;;;17.60;99.90;;;;;;1983551;72;21077;-70
2021/06/21 00:05:04;;;;;;;5.87;1.60;;;17.70;99.90;;;;;;1983564;72;21166;-69
2021/06/21 00:07:31;;;;;;;7.12;0.98;;;17.70;99.90;;;;;;1983334;72;21056;-70
2021/06/21 00:09:57;;;;;;;1.90;0.72;;;17.60;99.90;;;;;;1983539;72;21093;-70
2021/06/21 00:12:23;;;;;;;3.22;0.75;;;17.70;99.90;;;;;;1983344;72;21093;-70
2021/06/21 00:14:51;;;;;;;6.08;0.90;;;17.80;99.90;;;;;;1983386;72;21068;-70
2021/06/21 00:17:17;;;;;;;6.45;1.12;;;17.70;99.90;;;;;;1983449;72;21599;-70
2021/06/21 00:19:43;;;;;;;3.25;0.85;;;17.70;99.90;;;;;;1983314;72;21589;-70
2021/06/21 00:22:09;;;;;;;5.30;0.90;;;17.60;99.90;;;;;;1983539;72;21578;-69
2021/06/21 00:24:35;;;;;;;4.60;1.10;;;17.60;99.90;;;;;;1983360;72;21068;-70
2021/06/21 00:27:01;;;;;;;5.50;0.72;;;17.50;99.90;;;;;;1983473;72;21070;-70
2021/06/21 00:29:27;;;;;;;4.75;0.90;;;17.50;99.90;;;;;;1983446;72;21130;-69
2021/06/21 00:31:54;;;;;;;4.75;1.10;;;17.50;99.90;;;;;;1983424;72;21126;-69
2021/06/21 00:34:20;;;;;;;5.72;1.20;;;17.60;99.90;;;;;;1983464;72;21093;-69
2021/06/21 00:36:46;;;;;;;3.55;1.22;;;17.50;99.90;;;;;;1983449;72;21033;-69
2021/06/21 00:39:12;;;;;;;2.30;1.05;;;17.60;99.90;;;;;;1983457;72;21085;-70
2021/06/21 00:41:38;;;;;;;8.78;1.25;;;17.50;99.90;;;;;;1983313;72;21094;-69
2021/06/21 00:44:04;;;;;;;5.92;1.07;;;17.50;99.90;;;;;;1983484;72;21089;-70
2021/06/21 00:46:30;;;;;;;5.17;1.52;;;17.60;99.90;;;;;;1983453;72;21074;-70
2021/06/21 00:48:56;;;;;;;4.65;1.00;;;17.60;99.90;;;;;;1983534;72;21085;-69
2021/06/21 00:51:23;;;;;;;2.83;1.42;;;17.70;99.90;;;;;;1983423;72;21115;-70
2021/06/21 00:53:49;;;;;;;2.27;1.00;;;17.70;99.90;;;;;;1983662;72;21106;-69
2021/06/21 00:56:15;;;;;;;5.47;1.15;;;17.60;99.90;;;;;;1983372;72;21089;-68
2021/06/21 00:58:41;;;;;;;4.05;0.98;;;17.70;99.90;;;;;;1983430;72;21101;-68
2021/06/21 01:01:07;;;;;;;4.58;1.50;;;17.70;99.90;;;;;;1983431;72;21618;-69
2021/06/21 01:03:33;;;;;;;17.85;1.42;;;17.70;99.90;;;;;;1983624;72;21504;-70
2021/06/21 01:05:59;;;;;;;2.90;1.12;;;17.70;99.90;;;;;;1983380;72;21449;-69
2021/06/21 01:08:25;;;;;;;3.33;1.20;;;17.70;99.90;;;;;;1983431;72;20997;-69
2021/06/21 01:10:52;;;;;;;12.50;1.27;;;17.70;99.90;;;;;;1983402;72;21192;-70
2021/06/21 01:13:18;;;;;;;7.22;1.00;;;17.70;99.90;;;;;;1983416;72;21081;-69
2021/06/21 01:15:44;;;;;;;3.95;0.98;;;17.70;99.90;;;;;;1983601;72;21139;-69
2021/06/21 01:18:10;;;;;;;3.35;1.00;;;17.80;99.90;;;;;;1983421;72;21068;-69
2021/06/21 01:20:36;;;;;;;3.25;1.05;;;17.90;99.90;;;;;;1983410;72;21090;-69
2021/06/21 01:23:03;;;;;;;2.12;0.85;;;17.80;99.90;;;;;;1983410;72;21197;-69
2021/06/21 01:25:29;;;;;;;4.80;1.25;;;17.80;99.90;;;;;;1983442;72;21187;-69
2021/06/21 01:27:56;;;;;;;7.87;1.50;;;17.90;99.90;;;;;;1983420;72;21089;-69
2021/06/21 01:30:22;;;;;;;4.33;0.85;;;17.80;99.90;;;;;;1985126;72;21100;-70
2021/06/21 01:32:49;;;;;;;3.67;1.30;;;17.80;99.90;;;;;;1984550;71;21460;-69
2021/06/21 01:35:15;;;;;;;4.22;1.15;;;17.70;99.90;;;;;;1983464;72;21056;-69
2021/06/21 01:37:41;;;;;;;2.58;0.82;;;17.70;99.90;;;;;;1983563;72;21089;-69
2021/06/21 01:40:08;;;;;;;4.12;1.22;;;17.70;99.90;;;;;;1983406;72;21146;-69
2021/06/21 01:42:34;;;;;;;2.42;0.93;;;17.70;99.90;;;;;;1983394;72;21093;-69
2021/06/21 01:45:00;;;;;;;5.08;2.08;;;17.60;99.90;;;;;;1983404;72;21066;-69
2021/06/21 01:47:26;;;;;;;2.60;1.00;;;17.60;99.90;;;;;;1986153;72;21080;-69
2021/06/21 01:49:52;;;;;;;5.08;1.60;;;17.50;99.90;;;;;;1983409;72;21193;-69
2021/06/21 01:52:18;;;;;;;3.58;1.35;;;17.60;99.90;;;;;;1983304;72;21476;-69
2021/06/21 01:54:44;;;;;;;2.85;0.98;;;17.60;99.90;;;;;;1983480;72;21525;-69
2021/06/21 01:57:10;;;;;;;1.60;1.02;;;17.60;99.90;;;;;;1983447;72;21599;-69
2021/06/21 01:59:37;;;;;;;5.35;1.02;;;17.60;99.90;;;;;;1985359;71;21621;-69
2021/06/21 02:02:03;;;;;;;8.70;1.10;;;17.60;99.90;;;;;;1983405;72;21538;-69
2021/06/21 02:04:29;;;;;;;3.62;0.90;;;17.60;99.90;;;;;;1983371;72;21487;-69
2021/06/21 02:06:55;;;;;;;4.22;1.10;;;17.60;99.90;;;;;;1983514;72;21086;-69
2021/06/21 02:09:21;;;;;;;5.72;1.15;;;17.60;99.90;;;;;;1983518;72;21159;-69
2021/06/21 02:11:47;;;;;;;9.08;1.42;;;17.70;99.90;;;;;;1983405;72;21167;-69
2021/06/21 02:14:13;;;;;;;5.50;1.45;;;17.70;99.90;;;;;;1983431;72;21185;-69
2021/06/21 02:16:39;;;;;;;15.05;2.08;;;17.70;99.90;;;;;;1983456;72;21030;-69
2021/06/21 02:19:06;;;;;;;7.37;0.90;;;17.70;99.90;;;;;;1983282;72;21044;-69
2021/06/21 02:21:32;;;;;;;13.85;1.20;;;17.70;99.90;;;;;;1983481;72;21513;-70
2021/06/21 02:23:58;;;;;;;7.83;1.00;;;17.70;99.90;;;;;;1983505;72;21481;-69
2021/06/21 02:26:24;;;;;;;9.13;0.90;;;17.70;99.90;;;;;;1983414;72;21540;-70
2021/06/21 02:28:50;;;;;;;3.20;1.00;;;17.60;99.90;;;;;;1983416;72;21463;-70
2021/06/21 02:31:17;;;;;;;2.45;0.80;;;17.60;99.90;;;;;;1983477;72;21594;-70
2021/06/21 02:33:43;;;;;;;8.08;1.07;;;17.60;99.90;;;;;;1983371;72;21116;-69
2021/06/21 02:36:10;;;;;;;5.37;1.10;;;17.60;99.90;;;;;;1983267;72;21029;-69
2021/06/21 02:38:36;;;;;;;2.70;0.78;;;17.50;99.90;;;;;;1983284;72;21432;-69
2021/06/21 02:41:02;;;;;;;4.17;1.50;;;17.50;99.90;;;;;;1983477;72;21537;-69
2021/06/21 02:43:28;;;;;;;11.28;1.50;;;17.50;99.90;;;;;;1983276;72;21549;-69
2021/06/21 02:45:54;;;;;;;3.80;1.00;;;17.40;99.90;;;;;;1983502;72;21603;-69
2021/06/21 02:48:20;;;;;;;5.17;1.12;;;17.40;99.90;;;;;;1983277;72;21029;-69
2021/06/21 02:50:48;;;;;;;4.33;0.85;;;17.30;99.90;;;;;;1983502;72;21086;-69
2021/06/21 02:53:14;;;;;;;8.50;1.47;;;17.20;99.90;;;;;;1945577;72;21068;-69
2021/06/21 02:55:40;;;;;;;3.05;0.90;;;17.30;99.90;;;;;;1983477;72;21112;-68
2021/06/21 02:58:06;;;;;;;4.95;1.20;;;17.30;99.90;;;;;;1986747;72;21038;-64
2021/06/21 03:00:32;;;;;;;7.50;1.92;;;17.20;99.90;;;;;;1987021;72;21086;-68
2021/06/21 03:02:59;;;;;;;8.28;0.85;;;17.20;99.90;;;;;;1983465;72;21037;-69
2021/06/21 03:05:25;;;;;;;5.30;1.80;;;17.20;99.90;;;;;;1983435;72;21126;-69
2021/06/21 03:07:51;;;;;;;10.23;1.27;;;17.10;99.90;;;;;;1983538;72;21163;-68
2021/06/21 03:10:17;;;;;;;5.97;0.88;;;17.00;99.90;;;;;;1983505;72;21155;-69
2021/06/21 03:12:44;;;;;;;5.15;0.93;;;16.90;99.90;;;;;;1983592;72;21132;-69
2021/06/21 03:15:10;;;;;;;4.53;1.20;;;17.00;99.90;;;;;;1983468;72;21175;-68
2021/06/21 03:17:36;;;;;;;2.67;0.95;;;17.00;99.90;;;;;;1983464;72;21632;-69
2021/06/21 03:20:02;;;;;;;7.50;1.32;;;17.00;99.90;;;;;;1983604;72;21474;-69
2021/06/21 03:22:29;;;;;;;5.95;1.35;;;16.90;99.90;;;;;;1983464;72;21533;-69
2021/06/21 03:24:55;;;;;;;4.15;0.80;;;17.00;99.90;;;;;;1983378;72;21064;-69
2021/06/21 03:27:21;;;;;;;2.05;0.90;;;17.10;99.90;;;;;;1983349;72;21060;-69
2021/06/21 03:29:47;;;;;;;11.55;1.02;;;17.10;99.90;;;;;;1983432;72;21129;-69
2021/06/21 03:32:13;;;;;;;7.47;1.12;;;17.10;99.90;;;;;;1983477;72;21068;-69
2021/06/21 03:34:40;;;;;;;3.98;1.10;;;17.20;99.90;;;;;;1983463;72;21052;-69
2021/06/21 03:37:06;;;;;;;9.35;1.60;;;17.20;99.90;;;;;;1983298;72;21138;-71
2021/06/21 03:39:32;;;;;;;10.10;1.70;;;17.20;99.90;;;;;;1987231;72;21202;-72
2021/06/21 03:41:58;;;;;;;4.92;0.88;;;17.20;99.90;;;;;;1983927;72;21067;-71
2021/06/21 03:44:24;;;;;;;5.53;1.00;;;17.30;99.90;;;;;;1989365;72;21119;-72
2021/06/21 03:46:50;;;;;;;5.25;1.12;;;17.30;99.90;;;;;;1982344;72;21101;-72
2021/06/21 03:49:16;;;;;;;7.50;0.88;;;17.40;99.90;;;;;;1978907;72;21138;-72
2021/06/21 03:51:42;;;;;;;3.95;0.80;;;17.40;99.90;;;;;;1985183;72;21064;-71
2021/06/21 03:54:09;;;;;;;11.73;1.65;;;17.40;99.90;;;;;;1983463;72;21126;-71
2021/06/21 03:56:35;;;;;;;4.53;1.52;;;17.50;99.90;;;;;;1982259;72;21151;-72
2021/06/21 03:59:01;;;;;;;5.03;1.02;;;17.40;99.90;;;;;;1985363;72;21162;-72
2021/06/21 04:01:27;;;;;;;6.35;1.70;;;17.50;99.90;;;;;;1983451;72;21058;-71
2021/06/21 04:03:58;;;;;;;3.33;0.80;;;17.50;99.90;;;;;;1983408;72;21049;-71
2021/06/21 04:06:21;;;;;;;6.83;1.35;;;17.50;99.90;;;;;;1982255;72;21547;-72
2021/06/21 04:08:47;;;;;;;6.17;1.67;;;17.70;99.90;;;;;;1983553;72;21081;-72
2021/06/21 04:11:13;;;;;;;13.13;1.70;;;17.70;99.90;;;;;;1983333;72;21084;-73
2021/06/21 04:13:39;;;;;;;8.85;1.25;;;17.80;99.90;;;;;;1987687;72;21022;-71
2021/06/21 04:16:05;;;;;;;8.88;1.17;;;17.70;99.90;;;;;;1983526;72;21100;-73
2021/06/21 04:18:32;;;;;;;15.65;2.08;;;17.80;99.90;;;;;;1983449;72;21089;-72
2021/06/21 04:20:58;;;;;;;13.43;1.17;;;17.70;99.90;;;;;;1983502;72;21089;-73
2021/06/21 04:23:24;;;;;;;15.55;1.55;;;17.70;99.90;;;;;;1983510;72;21141;-73
2021/06/21 04:25:50;;;;;;;6.42;0.90;;;17.70;99.90;;;;;;1983475;72;21057;-73
2021/06/21 04:28:16;;;;;;;5.78;0.90;;;17.70;99.90;;;;;;1983452;72;21154;-72
2021/06/21 04:30:45;;;;;;;4.62;1.02;;;17.60;99.90;;;;;;1983475;72;21085;-73
2021/06/21 04:33:10;;;;;;;4.35;1.55;;;17.60;99.90;;;;;;1983300;72;21151;-71
2021/06/21 04:35:36;;;;;;;6.90;1.62;;;17.70;99.90;;;;;;1983441;72;21500;-70
2021/06/21 04:38:03;;;;;;;6.10;1.05;;;17.70;99.90;;;;;;1983453;72;21493;-71
2021/06/21 04:40:29;;;;;;;10.23;1.20;;;17.70;99.90;;;;;;1983468;72;21602;-71
2021/06/21 04:42:55;;;;;;;5.08;1.65;;;17.70;99.90;;;;;;1983373;72;21456;-71
2021/06/21 04:45:21;;;;;;;9.40;1.00;;;17.70;99.90;;;;;;1983587;72;21521;-72
2021/06/21 04:47:47;;;;;;;10.25;2.05;;;17.80;99.90;;;;;;1983361;72;21492;-72
2021/06/21 04:50:13;;;;;;;4.33;1.10;;;17.70;99.90;;;;;;1983561;72;21497;-71
2021/06/21 04:52:40;;;;;;;3.45;0.98;;;17.70;99.90;;;;;;1983616;72;21049;-71
2021/06/21 04:55:06;;;;;;;9.15;1.55;;;17.60;99.90;;;;;;1983394;72;21089;-71
2021/06/21 04:57:33;;;;;;;5.53;1.10;;;17.60;99.90;;;;;;1983528;72;21170;-71
2021/06/21 04:59:59;;;;;;;8.95;1.57;;;17.60;99.90;;;;;;1983320;72;21460;-71
2021/06/21 05:02:25;;;;;;;6.20;1.30;;;17.70;99.90;;;;;;1983244;72;21058;-71
2021/06/21 05:04:51;;;;;;;7.72;1.87;;;17.70;99.90;;;;;;1983325;72;21202;-71
2021/06/21 05:07:17;;;;;;;12.33;1.40;;;17.70;99.90;;;;;;1983348;72;21031;-71
2021/06/21 05:09:43;;;;;;;14.68;1.17;;;17.70;99.90;;;;;;1983362;72;21382;-71
2021/06/21 05:12:10;;;;;;;6.92;1.27;;;17.80;99.90;;;;;;1983257;72;21074;-71
2021/06/21 05:14:37;;;;;;;7.58;1.17;;;17.70;99.90;;;;;;1983225;72;21077;-70
2021/06/21 05:17:03;;;;;;;8.60;1.45;;;17.80;99.90;;;;;;1983339;72;21026;-70
2021/06/21 05:19:29;;;;;;;6.85;1.62;;;17.80;99.90;;;;;;1983206;72;21068;-71
2021/06/21 05:21:55;;;;;;;4.03;1.30;;;18.00;99.90;;;;;;1983275;72;21093;-71
2021/06/21 05:24:21;;;;;;;12.73;1.77;;;18.20;99.90;;;;;;1983251;72;21065;-72
2021/06/21 05:26:47;;;;;;;2.62;0.82;;;18.70;99.90;;;;;;1983016;72;21461;-70
2021/06/21 05:29:13;;;;;;;6.90;1.37;;;19.20;99.90;;;;;;1983092;72;21509;-70
2021/06/21 05:31:40;;;;;;;4.80;0.82;;;19.90;99.90;;;;;;1983109;72;21017;-70
2021/06/21 05:34:07;;;;;;;2.02;0.88;;;20.90;99.90;;;;;;1983293;72;21098;-70
2021/06/21 05:36:33;;;;;;;7.78;1.07;;;22.00;99.90;;;;;;1983149;72;21072;-70
2021/06/21 05:38:59;;;;;;;6.37;0.90;;;22.90;99.90;;;;;;1983322;72;21073;-73
2021/06/21 05:41:25;;;;;;;4.72;1.07;;;23.60;99.90;;;;;;1983248;72;21488;-71
2021/06/21 05:43:51;;;;;;;1.50;0.70;;;23.80;99.90;;;;;;1983487;72;21555;-71
2021/06/21 05:46:17;;;;;;;3.90;0.93;;;24.50;99.90;;;;;;1983455;72;21626;-70
2021/06/21 05:48:43;;;;;;;9.48;1.42;;;24.30;99.90;;;;;;1983313;72;21523;-70
2021/06/21 05:51:10;;;;;;;6.60;1.15;;;25.00;99.90;;;;;;1983426;72;20994;-73
2021/06/21 05:53:36;;;;;;;1.62;0.88;;;25.10;99.90;;;;;;1983355;72;21057;-74
2021/06/21 05:56:02;;;;;;;3.17;0.93;;;25.60;99.90;;;;;;1983288;72;21122;-74
2021/06/21 05:58:28;;;;;;;3.70;0.85;;;25.90;99.90;;;;;;1983340;72;21155;-74
2021/06/21 06:00:54;;;;;;;5.60;1.07;;;26.70;99.90;;;;;;1983399;72;21124;-74
2021/06/21 06:03:20;;;;;;;5.85;1.30;;;26.10;99.90;;;;;;1983295;72;21138;-74
2021/06/21 06:05:46;;;;;;;6.33;1.00;;;24.90;99.90;;;;;;1983328;72;21159;-73
2021/06/21 06:08:12;;;;;;;7.83;1.32;;;24.60;99.90;;;;;;1983255;72;21052;-74
2021/06/21 06:10:39;;;;;;;2.08;0.78;;;24.60;99.90;;;;;;1987028;72;21082;-73
2021/06/21 06:13:05;;;;;;;8.70;1.32;;;25.00;99.90;;;;;;1983259;72;21511;-74
2021/06/21 06:15:31;;;;;;;6.58;1.10;;;25.80;99.90;;;;;;1989205;72;21432;-74
2021/06/21 06:17:57;;;;;;;4.15;1.07;;;25.50;99.90;;;;;;1985294;72;21495;-74
2021/06/21 06:20:23;;;;;;;5.45;0.65;;;25.50;99.90;;;;;;1987212;72;21582;-74
2021/06/21 06:22:49;;;;;;;5.30;1.20;;;26.80;99.90;;;;;;1987353;72;21499;-74
2021/06/21 06:25:16;;;;;;;3.27;0.90;;;27.60;99.90;;;;;;1983382;72;21590;-74
2021/06/21 06:27:42;;;;;;;10.40;1.25;;;28.50;99.90;;;;;;1984986;72;21072;-74
2021/06/21 06:30:08;;;;;;;3.37;0.90;;;27.60;99.90;;;;;;1982055;72;21081;-75
2021/06/21 06:32:35;;;;;;;3.83;1.00;;;27.60;99.90;;;;;;1983386;72;21120;-74
2021/06/21 06:35:01;;;;;;;3.75;0.78;;;28.20;99.90;;;;;;1983091;72;21129;-75
2021/06/21 06:37:27;;;;;;;4.83;1.12;;;28.10;99.90;;;;;;1983315;72;21033;-75
2021/06/21 06:39:54;;;;;;;6.22;1.10;;;27.50;99.90;;;;;;1983103;72;21064;-75
2021/06/21 06:42:20;;;;;;;11.22;1.20;;;27.60;99.90;;;;;;1983499;72;21100;-75
2021/06/21 06:44:46;;;;;;;4.35;1.10;;;27.10;99.90;;;;;;1985791;72;21182;-75
2021/06/21 06:47:12;;;;;;;11.03;1.45;;;27.10;99.90;;;;;;1986447;72;21034;-75
2021/06/21 06:49:38;;;;;;;7.85;1.32;;;26.80;99.90;;;;;;1983427;72;21049;-75
2021/06/21 06:52:04;;;;;;;2.90;1.02;;;27.30;99.90;;;;;;1983126;72;21178;-75
2021/06/21 06:57:07;;;;;;;8.78;1.27;;;27.30;99.90;;;;;;1983255;72;21098;-76
2021/06/21 06:59:33;;;;;;;10.93;0.95;;;27.90;99.90;;;;;;1983145;72;21056;-76
2021/06/21 07:02:02;;;;;;;3.92;1.10;;;28.40;99.90;;;;;;1983396;72;21159;-75
2021/06/21 07:04:28;;;;;;;3.02;0.75;;;28.70;99.90;;;;;;1983404;72;21162;-76
2021/06/21 07:06:57;;;;;;;4.37;0.72;;;27.40;99.90;;;;;;1983478;72;21121;-76
2021/06/21 07:09:26;;;;;;;5.95;1.25;;;26.20;99.90;;;;;;1983348;72;21163;-77
2021/06/21 07:11:53;;;;;;;5.25;1.35;;;26.80;99.90;;;;;;1983695;72;21586;-76
2021/06/21 07:14:19;;;;;;;10.00;1.22;;;27.20;99.90;;;;;;1983389;72;21163;-75
2021/06/21 07:16:46;;;;;;;5.70;0.78;;;27.20;99.90;;;;;;1983463;72;21170;-75
2021/06/21 07:19:12;;;;;;;4.22;0.95;;;26.70;99.90;;;;;;1983374;72;21590;-74
2021/06/21 07:21:38;;;;;;;5.65;1.07;;;26.40;99.90;;;;;;1983216;72;21525;-74
2021/06/21 07:24:04;;;;;;;2.40;0.70;;;26.00;99.90;;;;;;1983285;72;21576;-78
2021/06/21 07:26:31;;;;;;;4.97;1.10;;;26.00;99.90;;;;;;1983164;72;21033;-77
2021/06/21 07:28:57;;;;;;;3.15;0.88;;;26.70;99.90;;;;;;1983356;72;21085;-75
2021/06/21 07:31:23;;;;;;;2.20;0.62;;;26.20;99.90;;;;;;1983280;72;21122;-75
2021/06/21 07:33:49;;;;;;;2.92;0.90;;;26.80;99.90;;;;;;1983434;72;21089;-73
2021/06/21 07:36:15;;;;;;;9.00;1.32;;;26.40;99.90;;;;;;1983476;72;21130;-73
2021/06/21 07:38:41;;;;;;;6.03;1.25;;;26.40;99.90;;;;;;1983515;72;21089;-74
2021/06/21 07:41:07;;;;;;;10.72;1.07;;;26.40;99.90;;;;;;1983524;72;21073;-73
2021/06/21 07:43:38;;;;;;;4.12;1.15;;;26.90;99.90;;;;;;1983346;72;21030;-73
2021/06/21 07:46:01;;;;;;;5.95;1.12;;;26.50;99.90;;;;;;1982752;72;21156;-73
2021/06/21 07:48:28;;;;;;;2.17;0.78;;;26.90;99.90;;;;;;1983239;72;21052;-75
2021/06/21 07:50:56;;;;;;;3.08;0.88;;;27.10;99.90;;;;;;1983688;72;21057;-75
2021/06/21 07:53:21;;;;;;;4.03;0.70;;;26.80;99.90;;;;;;1983781;72;21070;-76
2021/06/21 07:55:49;;;;;;;12.05;1.10;;;26.60;99.90;;;;;;1983806;72;21069;-76
2021/06/21 07:58:15;;;;;;;5.20;0.70;;;26.50;99.90;;;;;;1983895;72;21144;-75
2021/06/21 08:00:41;;;;;;;5.28;0.98;;;26.30;99.90;;;;;;1983897;72;21159;-75
2021/06/21 08:03:12;;;;;;;4.17;0.53;;;26.10;99.90;;;;;;1983877;72;21066;-75
2021/06/21 08:05:35;;;;;;;1.40;0.90;;;26.10;99.90;;;;;;1980929;72;21556;-73
2021/06/21 08:08:01;;;;;;;0.98;0.60;;;26.30;99.90;;;;;;1983909;72;21115;-76
2021/06/21 08:10:28;;;;;;;6.85;0.62;;;26.90;99.90;;;;;;1983853;72;21081;-76
2021/06/21 08:12:54;;;;;;;2.08;0.80;;;26.60;99.90;;;;;;1983900;72;21085;-75
2021/06/21 08:15:20;;;;;;;5.90;2.52;;;26.30;99.90;;;;;;1983971;72;21073;-77
2021/06/21 08:17:46;;;;;;;3.35;0.85;;;26.70;99.90;;;;;;1983865;72;21089;-75
2021/06/21 08:20:12;;;;;;;4.78;0.90;;;27.10;99.90;;;;;;1984040;72;21575;-74
2021/06/21 08:22:38;;;;;;;3.40;0.60;;;26.70;99.90;;;;;;1983740;72;21163;-77
2021/06/21 08:25:05;;;;;;;11.18;0.82;;;26.70;99.90;;;;;;1983400;72;21637;-77
2021/06/21 08:27:31;;;;;;;1.98;0.57;;;26.30;99.90;;;;;;1983200;72;21529;-76
2021/06/21 08:29:58;;;;;;;2.85;0.85;;;26.20;99.90;;;;;;1983419;72;21555;-76
2021/06/21 08:32:24;;;;;;;11.45;0.88;;;26.10;99.90;;;;;;1983307;72;21117;-77
2021/06/21 08:34:51;;;;;;;1.40;0.62;;;26.10;99.90;;;;;;1983206;72;21081;-76
2021/06/21 08:37:18;;;;;;;4.83;0.85;;;26.00;99.90;;;;;;1984944;72;21085;-76
2021/06/21 08:39:45;;;;;;;0.53;0.53;;;26.10;99.90;;;;;;1983396;72;21151;-76
2021/06/21 08:42:11;;;;;;;2.45;0.70;;;26.40;99.90;;;;;;1990413;71;21037;-76
2021/06/21 08:44:37;;;;;;;5.25;0.80;;;26.40;99.90;;;;;;2019948;71;21050;-77
2021/06/21 08:47:03;;;;;;;6.28;0.98;;;26.20;99.90;;;;;;2019909;71;21128;-76
2021/06/21 08:49:31;;;;;;;2.80;0.93;;;26.40;99.90;;;;;;2019755;71;21121;-77
2021/06/21 08:51:57;;;;;;;2.87;0.93;;;26.30;99.90;;;;;;2019695;71;21521;-77
2021/06/21 08:54:23;;;;;;;2.92;0.68;;;26.20;99.90;;;;;;2019778;71;21580;-77
2021/06/21 08:56:49;;;;;;;12.40;0.85;;;26.40;99.90;;;;;;2019696;71;21443;-77
2021/06/21 08:59:18;;;;;;;2.12;0.70;;;26.30;99.90;;;;;;2020448;71;21164;-77
2021/06/21 09:01:43;;;;;;;3.00;0.50;;;26.10;99.90;;;;;;2019828;71;21499;-77
2021/06/21 09:04:10;;;;;;;1.98;0.60;;;25.90;99.90;;;;;;2021831;71;21496;-77
2021/06/21 09:06:36;;;;;;;6.87;0.98;;;26.00;99.90;;;;;;2019840;71;21087;-77
2021/06/21 09:09:02;;;;;;;2.35;0.70;;;26.30;99.90;;;;;;2019912;71;21016;-76
2021/06/21 09:11:28;;;;;;;1.35;0.45;;;25.90;99.90;;;;;;2019998;71;21116;-74
2021/06/21 09:13:54;;;;;;;4.83;0.53;;;26.00;99.90;;;;;;2019971;71;21157;-74
2021/06/21 09:16:20;;;;;;;5.37;0.70;;;26.40;99.90;;;;;;2019922;71;21085;-75
2021/06/21 09:18:47;;;;;;;2.20;0.50;;;27.10;99.90;;;;;;2019926;71;21051;-75
2021/06/21 09:21:13;;;;;;;5.83;0.70;;;27.40;99.90;;;;;;2019863;71;21499;-76
2021/06/21 09:23:39;;;;;;;2.77;0.50;;;27.10;99.90;;;;;;2019654;71;21543;-77
2021/06/21 09:26:06;;;;;;;4.67;1.30;;;27.10;99.90;;;;;;2020064;71;21522;-76
2021/06/21 09:28:32;;;;;;;2.15;0.68;;;27.20;99.90;;;;;;2019653;71;21064;-78
2021/06/21 09:30:59;;;;;;;5.87;0.85;;;27.20;99.90;;;;;;2019875;71;21047;-76
2021/06/21 09:33:25;;;;;;;1.40;0.60;;;27.50;99.90;;;;;;2019694;71;21216;-77
2021/06/21 09:35:52;;;;;;;1.57;0.47;;;27.50;99.90;;;;;;2019870;71;21058;-77
2021/06/21 09:38:20;;;;;;;2.27;0.70;;;27.30;99.90;;;;;;2019633;71;21073;-77
2021/06/21 09:40:45;;;;;;;6.10;0.70;;;27.00;99.90;;;;;;2019798;71;21130;-76
2021/06/21 09:43:12;;;;;;;3.22;0.62;;;27.00;99.90;;;;;;2019834;71;21122;-76
2021/06/21 09:45:38;;;;;;;7.53;0.90;;;26.90;99.90;;;;;;2019912;71;21050;-76
2021/06/21 09:48:04;;;;;;;0.80;0.50;;;26.60;99.90;;;;;;2019906;71;21020;-76
2021/06/21 09:50:31;;;;;;;1.87;0.62;;;27.00;99.90;;;;;;2019785;71;21476;-76
2021/06/21 09:52:58;;;;;;;7.33;0.95;;;26.80;99.90;;;;;;2019617;71;21091;-77
2021/06/21 09:55:25;;;;;;;2.15;0.80;;;27.50;99.90;;;;;;2019764;71;21107;-77
2021/06/21 09:57:51;;;;;;;4.15;0.70;;;27.50;99.90;;;;;;2019579;71;21048;-77
2021/06/21 10:00:20;;;;;;;6.75;0.80;;;27.50;99.90;;;;;;2019767;71;21016;-76
2021/06/21 10:02:45;;;;;;;4.50;0.93;;;27.70;99.90;;;;;;2019245;71;21731;-77
2021/06/21 10:05:11;;;;;;;7.55;0.68;;;27.60;99.90;;;;;;2019587;71;21483;-77
2021/06/21 10:07:37;;;;;;;1.42;0.53;;;27.60;99.90;;;;;;2019612;71;21536;-76
2021/06/21 10:10:03;;;;;;;6.58;0.90;;;28.10;99.90;;;;;;2019828;71;21439;-76
2021/06/21 10:12:29;;;;;;;4.37;0.95;;;28.00;99.90;;;;;;2019765;71;20988;-76
2021/06/21 10:14:56;;;;;;;8.98;1.02;;;28.10;99.90;;;;;;2019703;71;21208;-76
2021/06/21 10:17:22;;;;;;;2.62;0.80;;;28.10;99.90;;;;;;2019703;71;21085;-75
2021/06/21 10:19:48;;;;;;;3.15;0.78;;;28.30;99.90;;;;;;2019756;71;21075;-77
2021/06/21 10:22:14;;;;;;;3.92;0.60;;;28.20;99.90;;;;;;2021555;71;21053;-74
2021/06/21 10:24:40;;;;;;;3.75;0.82;;;28.60;99.90;;;;;;2019793;71;21132;-76
2021/06/21 10:27:06;;;;;;;2.67;0.60;;;28.70;99.90;;;;;;2019821;71;21058;-75
2021/06/21 10:29:32;;;;;;;3.62;1.05;;;28.70;99.90;;;;;;2019882;71;21132;-75
2021/06/21 10:31:58;;;;;;;3.15;0.85;;;28.00;99.90;;;;;;2019786;71;21076;-75
2021/06/21 10:34:26;;;;;;;1.50;0.60;;;27.90;99.90;;;;;;2016915;70;21063;-76
2021/06/21 10:36:52;;;;;;;1.40;0.50;;;28.60;99.90;;;;;;2019635;71;21076;-75
2021/06/21 10:39:19;;;;;;;0.95;0.50;;;28.90;99.90;;;;;;2017798;71;21054;-75
2021/06/21 10:41:45;;;;;;;6.90;0.70;;;28.40;99.90;;;;;;2018594;71;21686;-75
2021/06/21 10:44:11;;;;;;;1.75;0.90;;;28.20;99.90;;;;;;2017324;71;21419;-75
2021/06/21 10:46:37;;;;;;;0.47;0.33;;;28.00;99.90;;;;;;2025298;70;21629;-72
2021/06/21 10:49:06;;;;;;;1.75;0.75;;;28.10;99.90;;;;;;2024417;70;21032;-72
2021/06/21 10:51:32;;;;;;;1.00;0.55;;;27.80;99.90;;;;;;2021386;71;21075;-75
2021/06/21 10:53:58;;;;;;;2.47;0.85;;;28.20;99.90;;;;;;2019967;71;21120;-76
2021/06/21 10:56:24;;;;;;;1.52;0.50;;;28.30;99.90;;;;;;2020027;71;21016;-73
2021/06/21 10:58:51;;;;;;;1.10;0.60;;;28.60;99.90;;;;;;2018583;71;21058;-76
2021/06/21 11:01:17;;;;;;;2.15;0.68;;;28.20;99.90;;;;;;2017300;71;21055;-76
2021/06/21 11:03:44;;;;;;;3.80;0.85;;;27.60;99.90;;;;;;2019852;71;21475;-77
2021/06/21 11:06:10;;;;;;;2.10;0.80;;;28.00;99.90;;;;;;1980411;71;21059;-77
2021/06/21 11:08:38;;;;;;;2.40;0.50;;;28.70;99.90;;;;;;2019791;71;21496;-79
2021/06/21 11:11:04;;;;;;;2.60;0.60;;;28.50;99.90;;;;;;2019677;71;21060;-78
2021/06/21 11:13:30;;;;;;;0.95;0.40;;;28.10;99.90;;;;;;2020110;71;21084;-78
2021/06/21 11:15:57;;;;;;;2.45;0.98;;;28.20;99.90;;;;;;2019693;71;21196;-79
2021/06/21 11:18:25;;;;;;;1.90;0.62;;;28.50;99.90;;;;;;2020065;71;21020;-78
2021/06/21 11:20:50;;;;;;;2.10;0.53;;;28.90;99.90;;;;;;2020402;71;21069;-78
2021/06/21 11:23:17;;;;;;;2.77;0.70;;;28.30;99.90;;;;;;2021826;71;21118;-78
2021/06/21 11:25:44;;;;;;;3.77;0.53;;;27.90;99.90;;;;;;2020697;71;21538;-77
2021/06/21 11:28:10;;;;;;;4.53;0.70;;;28.00;99.90;;;;;;2020187;71;21068;-80
2021/06/21 11:30:36;;;;;;;4.70;0.80;;;28.40;99.90;;;;;;2020170;71;21067;-76
2021/06/21 11:33:02;;;;;;;2.35;0.57;;;28.70;99.90;;;;;;2019898;71;21080;-76
2021/06/21 11:35:29;;;;;;;6.53;0.93;;;28.90;99.90;;;;;;2019884;71;21124;-76
2021/06/21 11:37:55;;;;;;;5.12;0.70;;;28.40;99.90;;;;;;2019924;71;21041;-77
2021/06/21 11:40:29;;;;;;;1.55;0.80;;;28.20;99.90;;;;;;2019893;71;21046;-77
2021/06/21 11:42:52;;;;;;;3.85;0.70;;;27.50;99.90;;;;;;2017941;71;21056;-77
2021/06/21 11:45:18;;;;;;;1.85;0.60;;;27.60;99.90;;;;;;2019850;71;21453;-78
2021/06/21 11:47:44;;;;;;;3.60;0.98;;;27.90;99.90;;;;;;2019978;71;21524;-75
2021/06/21 11:50:11;;;;;;;1.42;0.50;;;27.80;99.90;;;;;;2019865;71;21614;-78
2021/06/21 11:52:38;;;;;;;2.55;0.70;;;28.30;99.90;;;;;;2019844;71;21135;-85
2021/06/21 11:55:37;;;;;;;1.77;0.50;;;28.70;99.90;;;;;;2019816;71;21047;-77
2021/06/21 11:57:38;;;;;;;3.80;0.60;;;29.20;99.90;;;;;;2002566;71;21091;-76
2021/06/21 12:00:05;;;;;;;2.65;0.50;;;29.50;99.90;;;;;;2020016;71;21043;-75
2021/06/21 12:02:31;;;;;;;1.80;0.72;;;29.30;99.90;;;;;;2019816;71;21050;-79
2021/06/21 12:04:58;;;;;;;1.80;0.80;;;29.80;99.90;;;;;;2019913;71;21116;-76
2021/06/21 12:07:24;;;;;;;5.62;0.65;;;30.20;99.90;;;;;;2019748;71;21515;-77
2021/06/21 12:09:51;;;;;;;1.95;0.57;;;30.10;99.90;;;;;;2019746;71;21416;-75
2021/06/21 12:12:17;;;;;;;3.58;0.98;;;29.50;99.90;;;;;;2019940;71;21032;-73
2021/06/21 12:14:44;;;;;;;8.88;1.00;;;29.40;99.90;;;;;;2019901;71;21136;-74
2021/06/21 12:17:10;;;;;;;2.72;0.55;;;29.40;99.90;;;;;;2019829;71;21063;-74
2021/06/21 12:19:36;;;;;;;2.52;0.82;;;29.50;99.90;;;;;;2019754;71;21215;-73
2021/06/21 12:22:02;;;;;;;5.58;0.95;;;29.00;99.90;;;;;;2019938;71;21388;-73
2021/06/21 12:24:28;;;;;;;3.75;0.80;;;28.60;99.90;;;;;;2019644;71;21064;-75
2021/06/21 12:26:55;;;;;;;3.40;0.65;;;29.00;99.90;;;;;;2019770;71;21047;-75
2021/06/21 12:29:21;;;;;;;1.40;0.75;;;28.80;99.90;;;;;;2019704;71;21075;-82
2021/06/21 12:31:47;;;;;;;5.53;0.72;;;28.80;99.90;;;;;;2019850;71;21020;-86
2021/06/21 12:34:13;;;;;;;6.03;0.40;;;29.40;99.90;;;;;;2019711;71;21149;-81
2021/06/21 12:36:39;;;;;;;1.98;0.55;;;30.30;99.90;;;;;;2019822;71;21056;-81
2021/06/21 12:39:06;;;;;;;5.03;0.80;;;31.20;99.90;;;;;;2019870;71;21051;-82
2021/06/21 12:41:33;;;;;;;5.12;0.62;;;31.00;99.90;;;;;;2019665;71;21083;-81